createdAt,value
2018-07-08T00:00:09.647Z,14.4
2018-07-08T00:01:19.452Z,14.4
2018-07-08T00:02:29.546Z,14.41
2018-07-08T00:03:39.338Z,14.38
2018-07-08T00:04:49.420Z,14.4
2018-07-08T00:05:59.533Z,14.4
2018-07-08T00:07:09.054Z,14.33
2018-07-08T00:08:19.128Z,14.26
2018-07-08T00:09:28.924Z,14.3
2018-07-08T00:10:38.741Z,14.33
2018-07-08T00:11:48.857Z,14.25
2018-07-08T00:12:58.651Z,14.36
2018-07-08T00:14:08.731Z,14.3
2018-07-08T00:15:18.519Z,14.34
2018-07-08T00:16:28.591Z,14.3
2018-07-08T00:17:38.696Z,14.23
2018-07-08T00:18:48.816Z,14.25
2018-07-08T00:19:58.901Z,14.26
2018-07-08T00:21:08.698Z,14.12
2018-07-08T00:22:18.763Z,14.15
2018-07-08T00:23:28.895Z,14.15
2018-07-08T00:24:38.950Z,14.08
2018-07-08T00:25:49.031Z,14.11
2018-07-08T00:26:59.094Z,14.05
2018-07-08T00:28:08.095Z,14.07
2018-07-08T00:29:17.925Z,14
2018-07-08T00:30:27.997Z,14.05
2018-07-08T00:31:38.054Z,13.97
2018-07-08T00:32:47.845Z,14
2018-07-08T00:33:57.916Z,14
2018-07-08T00:35:07.774Z,13.91
2018-07-08T00:36:17.854Z,13.95
2018-07-08T00:37:27.652Z,13.86
2018-07-08T00:38:37.718Z,13.85
2018-07-08T00:39:47.913Z,13.86
2018-07-08T00:40:58.247Z,13.93
2018-07-08T00:42:07.234Z,13.87
2018-07-08T00:43:16.775Z,13.82
2018-07-08T00:44:26.864Z,13.83
2018-07-08T00:45:36.945Z,13.76
2018-07-08T00:46:46.524Z,13.78
2018-07-08T00:47:56.595Z,13.78
2018-07-08T00:49:06.122Z,13.78
2018-07-08T00:50:15.924Z,13.8
2018-07-08T00:51:25.443Z,13.82
2018-07-08T00:52:35.022Z,13.8
2018-07-08T00:53:44.814Z,13.78
2018-07-08T00:54:54.332Z,13.76
2018-07-08T00:56:04.145Z,13.83
2018-07-08T00:57:13.663Z,13.82
2018-07-08T00:58:23.500Z,13.8
2018-07-08T00:59:33.601Z,13.7
2018-07-08T01:00:43.406Z,13.7
2018-07-08T01:01:53.592Z,13.62
2018-07-08T01:03:03.389Z,13.71
2018-07-08T01:04:13.542Z,13.7
2018-07-08T01:05:23.613Z,13.67
2018-07-08T01:06:33.435Z,13.7
2018-07-08T01:07:43.240Z,13.6
2018-07-08T01:08:53.242Z,13.65
2018-07-08T01:10:03.345Z,13.64
2018-07-08T01:11:13.161Z,13.64
2018-07-08T01:12:22.700Z,13.62
2018-07-08T01:13:32.499Z,13.62
2018-07-08T01:14:42.285Z,13.61
2018-07-08T01:15:52.393Z,13.57
2018-07-08T01:17:01.915Z,13.54
2018-07-08T01:18:11.691Z,13.6
2018-07-08T01:19:21.803Z,13.52
2018-07-08T01:20:31.337Z,13.52
2018-07-08T01:21:41.461Z,13.55
2018-07-08T01:22:50.728Z,13.55
2018-07-08T01:24:00.834Z,13.5
2018-07-08T01:25:10.646Z,13.57
2018-07-08T01:26:20.722Z,13.46
2018-07-08T01:27:30.292Z,13.52
2018-07-08T01:28:40.377Z,13.49
2018-07-08T01:29:49.919Z,13.46
2018-07-08T01:31:00.000Z,13.4
2018-07-08T01:32:10.080Z,13.43
2018-07-08T01:33:19.931Z,13.36
2018-07-08T01:34:30.050Z,13.23
2018-07-08T01:35:40.129Z,13.26
2018-07-08T01:36:49.926Z,13.24
2018-07-08T01:37:59.756Z,13.2
2018-07-08T01:39:09.623Z,13.06
2018-07-08T01:40:19.689Z,12.94
2018-07-08T01:41:29.484Z,12.87
2018-07-08T01:42:39.557Z,12.84
2018-07-08T01:43:49.617Z,12.66
2018-07-08T01:44:59.727Z,12.53
2018-07-08T01:46:09.526Z,12.47
2018-07-08T01:47:19.599Z,12.36
2018-07-08T01:48:29.663Z,12.32
2018-07-08T01:49:39.460Z,12.29
2018-07-08T01:50:49.034Z,12.17
2018-07-08T01:51:58.812Z,12.14
2018-07-08T01:53:08.887Z,12.12
2018-07-08T01:54:18.683Z,12.02
2018-07-08T01:55:28.485Z,11.99
2018-07-08T01:56:38.341Z,11.95
2018-07-08T01:57:48.405Z,11.91
2018-07-08T01:58:58.481Z,11.89
2018-07-08T02:00:08.009Z,11.91
2018-07-08T02:01:17.808Z,11.89
2018-07-08T02:02:35.027Z,11.88
2018-07-08T02:03:44.831Z,11.93
2018-07-08T02:04:54.874Z,11.96
2018-07-08T02:06:04.675Z,11.93
2018-07-08T02:07:14.751Z,11.97
2018-07-08T02:08:24.854Z,11.96
2018-07-08T02:09:34.376Z,12.02
2018-07-08T02:10:43.925Z,11.96
2018-07-08T02:11:53.455Z,12.07
2018-07-08T02:13:02.967Z,12.05
2018-07-08T02:14:12.269Z,12.14
2018-07-08T02:15:21.796Z,12.02
2018-07-08T02:16:31.871Z,12.1
2018-07-08T02:17:41.950Z,12.14
2018-07-08T02:18:52.014Z,12.2
2018-07-08T02:20:02.130Z,12.17
2018-07-08T02:21:11.945Z,12.25
2018-07-08T02:22:21.480Z,12.3
2018-07-08T02:23:31.574Z,12.29
2018-07-08T02:24:41.668Z,12.29
2018-07-08T02:25:51.838Z,12.25
2018-07-08T02:27:01.901Z,12.2
2018-07-08T02:28:11.421Z,12.28
2018-07-08T02:29:20.949Z,12.23
2018-07-08T02:30:30.205Z,12.18
2018-07-08T02:31:40.098Z,12.1
2018-07-08T02:32:49.892Z,12.12
2018-07-08T02:33:59.695Z,11.97
2018-07-08T02:35:09.830Z,12
2018-07-08T02:36:19.918Z,11.97
2018-07-08T02:37:30.055Z,12.02
2018-07-08T02:38:40.113Z,12.05
2018-07-08T02:39:49.638Z,12
2018-07-08T02:40:59.706Z,12.03
2018-07-08T02:42:09.786Z,12.12
2018-07-08T02:43:19.912Z,12.15
2018-07-08T02:44:29.973Z,12.18
2018-07-08T02:45:40.023Z,12.18
2018-07-08T02:46:49.574Z,12.26
2018-07-08T02:47:59.686Z,12.29
2018-07-08T02:49:09.553Z,12.26
2018-07-08T02:50:19.640Z,12.29
2018-07-08T02:51:29.478Z,12.28
2018-07-08T02:52:39.543Z,12.25
2018-07-08T02:53:49.357Z,12.35
2018-07-08T02:54:59.467Z,12.36
2018-07-08T02:56:09.564Z,12.43
2018-07-08T02:57:19.640Z,12.37
2018-07-08T02:58:29.431Z,12.37
2018-07-08T02:59:39.493Z,12.35
2018-07-08T03:03:40.991Z,12.28
2018-07-08T03:04:50.791Z,12.17
2018-07-08T03:06:00.301Z,12.28
2018-07-08T03:07:10.366Z,12.25
2018-07-08T03:08:20.434Z,12.17
2018-07-08T03:09:30.295Z,12.12
2018-07-08T03:10:40.102Z,12.14
2018-07-08T03:11:49.910Z,12.14
2018-07-08T03:12:59.448Z,12.1
2018-07-08T03:14:08.970Z,12.14
2018-07-08T03:15:18.823Z,12.15
2018-07-08T03:16:28.893Z,12.18
2018-07-08T03:17:38.730Z,12.23
2018-07-08T03:18:48.818Z,12.14
2018-07-08T03:19:58.929Z,12.2
2018-07-08T03:21:08.512Z,12.17
2018-07-08T03:22:18.323Z,12.29
2018-07-08T03:23:27.845Z,12.32
2018-07-08T03:24:37.915Z,12.32
2018-07-08T03:25:47.190Z,12.29
2018-07-08T03:26:57.301Z,12.25
2018-07-08T03:28:07.110Z,12.26
2018-07-08T03:29:17.160Z,12.26
2018-07-08T03:30:26.956Z,12.39
2018-07-08T03:31:37.035Z,12.39
2018-07-08T03:32:47.161Z,12.37
2018-07-08T03:33:56.950Z,12.36
2018-07-08T03:35:06.201Z,12.43
2018-07-08T03:36:16.271Z,12.43
2018-07-08T03:37:26.346Z,12.45
2018-07-08T03:38:36.211Z,12.53
2018-07-08T03:39:45.741Z,12.63
2018-07-08T03:40:55.244Z,12.63
2018-07-08T03:42:05.035Z,12.66
2018-07-08T03:43:15.098Z,12.7
2018-07-08T03:44:24.953Z,12.72
2018-07-08T03:45:35.010Z,12.78
2018-07-08T03:46:45.063Z,12.8
2018-07-08T03:47:54.861Z,12.84
2018-07-08T03:49:04.679Z,12.83
2018-07-08T03:50:14.794Z,12.95
2018-07-08T03:51:24.872Z,12.93
2018-07-08T03:52:34.121Z,13.02
2018-07-08T03:53:43.926Z,13.01
2018-07-08T03:54:53.447Z,13.08
2018-07-08T03:56:03.046Z,13.12
2018-07-08T03:57:12.554Z,13.06
2018-07-08T03:58:22.622Z,13.13
2018-07-08T03:59:32.410Z,13.21
2018-07-08T04:00:42.478Z,13.2
2018-07-08T04:01:52.593Z,13.24
2018-07-08T04:03:02.390Z,13.31
2018-07-08T04:04:12.196Z,13.26
2018-07-08T04:05:21.184Z,13.33
2018-07-08T04:06:30.715Z,13.37
2018-07-08T04:07:40.554Z,13.4
2018-07-08T04:08:50.638Z,13.46
2018-07-08T04:10:00.428Z,13.54
2018-07-08T04:11:10.487Z,13.57
2018-07-08T04:12:20.277Z,13.6
2018-07-08T04:13:30.405Z,13.67
2018-07-08T04:14:40.480Z,13.58
2018-07-08T04:15:50.274Z,13.62
2018-07-08T04:17:00.076Z,13.67
2018-07-08T04:18:09.339Z,13.7
2018-07-08T04:19:18.919Z,13.62
2018-07-08T04:20:28.717Z,13.71
2018-07-08T04:21:38.259Z,13.68
2018-07-08T04:22:48.323Z,13.71
2018-07-08T04:23:58.142Z,13.8
2018-07-08T04:25:08.282Z,13.85
2018-07-08T04:26:18.351Z,13.8
2018-07-08T04:27:28.427Z,13.79
2018-07-08T04:28:38.214Z,13.86
2018-07-08T04:29:48.296Z,13.93
2018-07-08T04:30:58.156Z,13.86
2018-07-08T04:32:07.963Z,13.97
2018-07-08T04:33:17.779Z,14
2018-07-08T04:34:27.325Z,13.97
2018-07-08T04:35:37.126Z,13.93
2018-07-08T04:36:46.988Z,13.93
2018-07-08T04:37:56.794Z,14
2018-07-08T04:39:06.596Z,14
2018-07-08T04:40:16.392Z,14.08
2018-07-08T04:41:26.197Z,14.07
2018-07-08T04:42:36.052Z,14.18
2018-07-08T04:43:46.130Z,14.13
2018-07-08T04:44:56.207Z,14.2
2018-07-08T04:46:06.277Z,14.2
2018-07-08T04:47:16.338Z,14.18
2018-07-08T04:48:25.935Z,14.25
2018-07-08T04:49:36.009Z,14.31
2018-07-08T04:50:45.804Z,14.3
2018-07-08T04:51:55.849Z,14.28
2018-07-08T04:53:05.654Z,14.3
2018-07-08T04:54:15.767Z,14.28
2018-07-08T04:55:25.832Z,14.36
2018-07-08T04:56:35.628Z,14.37
2018-07-08T04:57:45.684Z,14.33
2018-07-08T04:58:55.488Z,14.38
2018-07-08T05:00:05.597Z,14.43
2018-07-08T05:01:15.675Z,14.37
2018-07-08T05:02:25.736Z,14.38
2018-07-08T05:03:35.520Z,14.48
2018-07-08T05:04:45.609Z,14.55
2018-07-08T05:05:55.725Z,14.52
2018-07-08T05:07:05.518Z,14.66
2018-07-08T05:08:15.058Z,14.68
2018-07-08T05:09:25.138Z,14.63
2018-07-08T05:10:34.684Z,14.63
2018-07-08T05:11:44.537Z,14.71
2018-07-08T05:12:54.048Z,14.77
2018-07-08T05:14:03.858Z,14.86
2018-07-08T05:15:13.637Z,14.97
2018-07-08T05:16:23.484Z,14.9
2018-07-08T05:17:33.340Z,14.97
2018-07-08T05:18:42.857Z,15.02
2018-07-08T05:19:52.927Z,15.08
2018-07-08T05:21:02.717Z,15.14
2018-07-08T05:22:12.239Z,15.17
2018-07-08T05:23:21.815Z,15.26
2018-07-08T05:24:30.815Z,15.22
2018-07-08T05:25:40.621Z,15.32
2018-07-08T05:26:50.694Z,15.35
2018-07-08T05:28:00.770Z,15.37
2018-07-08T05:29:10.352Z,15.44
2018-07-08T05:30:20.134Z,15.36
2018-07-08T05:31:29.661Z,15.33
2018-07-08T05:32:39.188Z,15.48
2018-07-08T05:33:48.449Z,15.54
2018-07-08T05:34:58.294Z,15.5
2018-07-08T05:36:07.849Z,15.59
2018-07-08T05:37:17.639Z,15.52
2018-07-08T05:38:27.701Z,15.63
2018-07-08T05:39:37.500Z,15.63
2018-07-08T05:40:47.077Z,15.65
2018-07-08T05:41:56.604Z,15.66
2018-07-08T05:43:06.134Z,15.69
2018-07-08T05:44:15.667Z,15.7
2018-07-08T05:45:25.729Z,15.72
2018-07-08T05:46:35.582Z,15.72
2018-07-08T05:47:45.387Z,15.73
2018-07-08T05:48:54.914Z,15.73
2018-07-08T05:50:04.998Z,15.76
2018-07-08T05:51:14.897Z,15.76
2018-07-08T05:52:24.748Z,15.7
2018-07-08T05:53:34.543Z,15.8
2018-07-08T05:54:44.616Z,15.75
2018-07-08T05:55:54.407Z,15.7
2018-07-08T05:57:03.947Z,15.81
2018-07-08T05:58:14.075Z,15.84
2018-07-08T05:59:24.134Z,15.83
2018-07-08T06:00:33.923Z,15.84
2018-07-08T06:01:44.003Z,15.98
2018-07-08T06:02:53.816Z,16
2018-07-08T06:04:03.675Z,15.9
2018-07-08T06:05:13.217Z,16.03
2018-07-08T06:06:23.028Z,16.05
2018-07-08T06:07:32.828Z,15.99
2018-07-08T06:08:42.951Z,16.1
2018-07-08T06:09:52.531Z,16.05
2018-07-08T06:11:02.589Z,16.18
2018-07-08T06:12:12.118Z,16.17
2018-07-08T06:13:22.188Z,16.13
2018-07-08T06:14:32.002Z,16.24
2018-07-08T06:15:41.865Z,16.24
2018-07-08T06:16:51.737Z,16.18
2018-07-08T06:18:01.689Z,16.29
2018-07-08T06:19:11.472Z,16.28
2018-07-08T06:20:21.273Z,16.36
2018-07-08T06:21:31.127Z,16.29
2018-07-08T06:22:41.223Z,16.37
2018-07-08T06:23:51.025Z,16.43
2018-07-08T06:25:00.821Z,16.41
2018-07-08T06:26:11.015Z,16.5
2018-07-08T06:27:20.898Z,16.46
2018-07-08T06:28:30.974Z,16.46
2018-07-08T06:29:40.766Z,16.49
2018-07-08T06:30:50.569Z,16.57
2018-07-08T06:32:00.636Z,16.62
2018-07-08T06:33:10.505Z,16.58
2018-07-08T06:34:20.316Z,16.55
2018-07-08T06:35:30.391Z,16.58
2018-07-08T06:36:40.181Z,16.68
2018-07-08T06:37:50.338Z,16.82
2018-07-08T06:39:00.381Z,16.57
2018-07-08T06:40:10.300Z,16.68
2018-07-08T06:41:20.385Z,16.64
2018-07-08T06:42:30.181Z,16.62
2018-07-08T06:43:40.247Z,16.69
2018-07-08T06:44:50.124Z,16.68
2018-07-08T06:45:59.945Z,16.82
2018-07-08T06:47:09.198Z,16.86
2018-07-08T06:48:18.709Z,16.86
2018-07-08T06:49:27.961Z,16.79
2018-07-08T06:50:38.089Z,16.92
2018-07-08T06:51:48.164Z,16.91
2018-07-08T06:52:58.029Z,16.94
2018-07-08T06:54:08.101Z,16.98
2018-07-08T06:55:18.175Z,16.91
2018-07-08T06:56:28.302Z,16.95
2018-07-08T06:57:38.389Z,17.02
2018-07-08T06:58:48.461Z,17.02
2018-07-08T06:59:57.740Z,17.05
2018-07-08T07:01:07.556Z,17.02
2018-07-08T07:02:17.130Z,17.12
2018-07-08T07:03:26.650Z,17.12
2018-07-08T07:04:36.454Z,17.16
2018-07-08T07:05:45.976Z,17.13
2018-07-08T07:06:55.350Z,17.17
2018-07-08T07:08:04.924Z,17.28
2018-07-08T07:09:14.454Z,17.37
2018-07-08T07:10:24.251Z,17.41
2018-07-08T07:11:34.061Z,17.44
2018-07-08T07:12:44.133Z,17.47
2018-07-08T07:13:53.981Z,17.57
2018-07-08T07:15:03.509Z,17.54
2018-07-08T07:16:13.316Z,17.69
2018-07-08T07:17:23.241Z,17.57
2018-07-08T07:18:33.547Z,17.65
2018-07-08T07:19:43.384Z,17.66
2018-07-08T07:20:53.483Z,17.75
2018-07-08T07:22:03.293Z,17.76
2018-07-08T07:23:12.814Z,17.68
2018-07-08T07:24:22.602Z,17.79
2018-07-08T07:25:32.448Z,17.72
2018-07-08T07:26:42.272Z,17.76
2018-07-08T07:27:52.356Z,17.8
2018-07-08T07:29:02.425Z,17.86
2018-07-08T07:30:11.953Z,17.88
2018-07-08T07:31:21.802Z,17.84
2018-07-08T07:32:31.334Z,17.97
2018-07-08T07:33:41.408Z,18.06
2018-07-08T07:34:51.214Z,17.98
2018-07-08T07:36:01.298Z,17.98
2018-07-08T07:37:11.450Z,18.02
2018-07-08T07:38:21.379Z,18.09
2018-07-08T07:39:31.451Z,18.05
2018-07-08T07:40:41.541Z,18.15
2018-07-08T07:41:51.350Z,18.13
2018-07-08T07:43:01.472Z,18.26
2018-07-08T07:44:11.548Z,18.3
2018-07-08T07:45:21.421Z,18.28
2018-07-08T07:46:31.318Z,18.27
2018-07-08T07:47:41.119Z,18.28
2018-07-08T07:48:51.248Z,18.36
2018-07-08T07:50:01.039Z,18.45
2018-07-08T07:51:10.863Z,18.51
2018-07-08T07:52:20.814Z,18.52
2018-07-08T07:53:30.600Z,18.46
2018-07-08T07:54:40.719Z,18.46
2018-07-08T07:55:50.781Z,18.58
2018-07-08T07:57:00.839Z,18.6
2018-07-08T07:58:10.640Z,18.51
2018-07-08T07:59:20.724Z,18.6
2018-07-08T08:00:30.567Z,18.57
2018-07-08T08:01:40.353Z,18.7
2018-07-08T08:02:50.432Z,18.78
2018-07-08T08:04:00.236Z,18.82
2018-07-08T08:05:09.794Z,18.86
2018-07-08T08:06:19.911Z,18.85
2018-07-08T08:07:29.731Z,18.85
2018-07-08T08:08:40.065Z,19.04
2018-07-08T08:09:50.170Z,19.04
2018-07-08T08:10:59.707Z,19.07
2018-07-08T08:12:09.560Z,19.01
2018-07-08T08:13:19.632Z,19.2
2018-07-08T08:14:29.153Z,19.22
2018-07-08T08:15:38.684Z,19.22
2018-07-08T08:16:48.757Z,19.24
2018-07-08T08:17:58.874Z,19.3
2018-07-08T08:19:08.958Z,19.48
2018-07-08T08:20:19.022Z,19.48
2018-07-08T08:21:29.107Z,19.49
2018-07-08T08:22:39.173Z,19.56
2018-07-08T08:23:48.751Z,19.71
2018-07-08T08:24:58.561Z,19.72
2018-07-08T08:26:08.095Z,19.75
2018-07-08T08:27:17.617Z,19.79
2018-07-08T08:28:27.421Z,19.85
2018-07-08T08:29:37.556Z,19.92
2018-07-08T08:30:47.637Z,19.93
2018-07-08T08:31:57.715Z,20.02
2018-07-08T08:33:07.236Z,19.94
2018-07-08T08:34:17.037Z,20.04
2018-07-08T08:35:26.345Z,20.02
2018-07-08T08:36:35.877Z,20.1
2018-07-08T08:37:45.400Z,20.08
2018-07-08T08:38:54.932Z,20.21
2018-07-08T08:40:04.736Z,20.27
2018-07-08T08:41:14.870Z,20.36
2018-07-08T08:42:24.137Z,20.33
2018-07-08T08:43:34.211Z,20.42
2018-07-08T08:44:44.286Z,20.46
2018-07-08T08:45:54.433Z,20.5
2018-07-08T08:47:03.873Z,20.55
2018-07-08T08:48:13.667Z,20.59
2018-07-08T08:49:23.754Z,20.6
2018-07-08T08:50:33.544Z,20.66
2018-07-08T08:51:43.073Z,20.77
2018-07-08T08:52:53.208Z,20.75
2018-07-08T08:54:03.004Z,20.74
2018-07-08T08:55:12.547Z,20.8
2018-07-08T08:56:22.618Z,20.78
2018-07-08T08:57:32.682Z,20.77
2018-07-08T08:58:42.592Z,20.85
2018-07-08T08:59:52.665Z,20.86
2018-07-08T09:01:02.740Z,20.83
2018-07-08T09:02:12.560Z,20.9
2018-07-08T09:03:22.646Z,20.89
2018-07-08T09:04:31.965Z,20.8
2018-07-08T09:05:42.033Z,20.9
2018-07-08T09:06:51.836Z,20.96
2018-07-08T09:08:01.651Z,20.85
2018-07-08T09:09:11.738Z,20.83
2018-07-08T09:10:21.332Z,20.83
2018-07-08T09:11:31.149Z,20.77
2018-07-08T09:12:41.215Z,20.83
2018-07-08T09:13:51.308Z,20.9
2018-07-08T09:15:01.108Z,20.92
2018-07-08T09:16:11.232Z,20.77
2018-07-08T09:17:21.498Z,20.93
2018-07-08T09:18:31.128Z,21.03
2018-07-08T09:19:41.205Z,20.96
2018-07-08T09:20:50.744Z,21.08
2018-07-08T09:22:00.344Z,21.04
2018-07-08T09:23:10.425Z,21.04
2018-07-08T09:24:20.495Z,21.13
2018-07-08T09:25:30.308Z,21.13
2018-07-08T09:26:40.395Z,21.11
2018-07-08T09:27:50.239Z,21.22
2018-07-08T09:29:00.313Z,21.29
2018-07-08T09:30:09.572Z,21.37
2018-07-08T09:31:19.640Z,21.35
2018-07-08T09:32:28.910Z,21.32
2018-07-08T09:33:38.768Z,21.37
2018-07-08T09:34:48.848Z,21.41
2018-07-08T09:35:58.937Z,21.38
2018-07-08T09:37:09.032Z,21.56
2018-07-08T09:38:19.093Z,21.63
2018-07-08T09:39:28.990Z,21.6
2018-07-08T09:40:38.792Z,21.6
2018-07-08T09:41:48.588Z,21.78
2018-07-08T09:42:58.129Z,21.75
2018-07-08T09:44:07.933Z,21.77
2018-07-08T09:45:17.523Z,21.78
2018-07-08T09:46:27.317Z,21.77
2018-07-08T09:47:37.119Z,21.88
2018-07-08T09:48:47.196Z,21.91
2018-07-08T09:49:57.269Z,21.85
2018-07-08T09:51:07.124Z,21.89
2018-07-08T09:52:16.941Z,21.85
2018-07-08T09:53:27.007Z,21.89
2018-07-08T09:54:36.806Z,21.94
2018-07-08T09:55:46.914Z,21.91
2018-07-08T09:56:57.059Z,22
2018-07-08T09:58:07.123Z,21.99
2018-07-08T09:59:16.369Z,22.06
2018-07-08T10:00:25.615Z,22.04
2018-07-08T10:01:35.141Z,22.14
2018-07-08T10:02:45.000Z,22.28
2018-07-08T10:03:55.079Z,22.23
2018-07-08T10:05:05.272Z,22.25
2018-07-08T10:06:15.369Z,22.3
2018-07-08T10:07:25.192Z,22.26
2018-07-08T10:08:35.074Z,22.3
2018-07-08T10:09:44.925Z,22.36
2018-07-08T10:10:55.113Z,22.36
2018-07-08T10:12:05.164Z,22.49
2018-07-08T10:13:15.237Z,22.46
2018-07-08T10:14:25.355Z,22.53
2018-07-08T10:15:35.439Z,22.52
2018-07-08T10:16:45.523Z,22.46
2018-07-08T10:17:56.029Z,22.41
2018-07-08T10:19:06.352Z,22.49
2018-07-08T10:20:16.746Z,22.46
2018-07-08T10:21:26.583Z,22.52
2018-07-08T10:22:36.039Z,22.56
2018-07-08T10:23:45.836Z,22.59
2018-07-08T10:24:55.914Z,22.67
2018-07-08T10:26:06.022Z,22.68
2018-07-08T10:27:15.838Z,22.67
2018-07-08T10:28:25.942Z,22.8
2018-07-08T10:29:36.035Z,22.88
2018-07-08T10:30:45.857Z,22.91
2018-07-08T10:31:55.989Z,23.08
2018-07-08T10:33:05.808Z,23.04
2018-07-08T10:34:15.903Z,23.07
2018-07-08T10:35:25.437Z,23.11
2018-07-08T10:36:34.844Z,23.21
2018-07-08T10:37:44.630Z,23.18
2018-07-08T10:38:54.169Z,23.33
2018-07-08T10:40:03.975Z,23.44
2018-07-08T10:41:14.049Z,23.4
2018-07-08T10:42:24.117Z,23.52
2018-07-08T10:43:34.400Z,23.66
2018-07-08T10:44:43.653Z,23.62
2018-07-08T10:45:53.476Z,23.79
2018-07-08T10:47:03.296Z,23.81
2018-07-08T10:48:13.375Z,23.86
2018-07-08T10:49:23.492Z,23.94
2018-07-08T10:50:33.026Z,24.01
2018-07-08T10:51:43.105Z,24.06
2018-07-08T10:52:53.185Z,24.1
2018-07-08T10:54:02.729Z,24.19
2018-07-08T10:55:12.315Z,24.37
2018-07-08T10:56:22.203Z,24.47
2018-07-08T10:57:31.729Z,24.55
2018-07-08T10:58:41.531Z,24.56
2018-07-08T10:59:51.632Z,24.55
2018-07-08T11:01:01.774Z,24.63
2018-07-08T11:02:11.585Z,24.81
2018-07-08T11:03:21.659Z,24.92
2018-07-08T11:04:31.240Z,24.86
2018-07-08T11:05:41.373Z,24.94
2018-07-08T11:06:51.509Z,24.97
2018-07-08T11:08:01.601Z,25
2018-07-08T11:09:11.453Z,24.99
2018-07-08T11:10:20.987Z,25.06
2018-07-08T11:11:31.060Z,25.16
2018-07-08T11:12:41.238Z,25.12
2018-07-08T11:13:51.313Z,25.22
2018-07-08T11:15:01.117Z,25.19
2018-07-08T11:16:11.195Z,25.15
2018-07-08T11:17:21.017Z,25.25
2018-07-08T11:18:30.875Z,25.25
2018-07-08T11:19:40.943Z,25.29
2018-07-08T11:20:50.556Z,25.26
2018-07-08T11:22:00.483Z,25.25
2018-07-08T11:23:10.005Z,25.41
2018-07-08T11:24:19.852Z,25.37
2018-07-08T11:25:29.664Z,25.39
2018-07-08T11:26:39.756Z,25.37
2018-07-08T11:27:49.882Z,25.39
2018-07-08T11:28:59.428Z,25.43
2018-07-08T11:30:09.303Z,25.39
2018-07-08T11:31:19.111Z,25.3
2018-07-08T11:32:28.913Z,25.41
2018-07-08T11:33:38.714Z,25.43
2018-07-08T11:34:48.796Z,25.43
2018-07-08T11:35:58.664Z,25.61
2018-07-08T11:37:07.939Z,25.74
2018-07-08T11:38:17.753Z,25.95
2018-07-08T11:39:27.572Z,26.37
2018-07-08T11:40:37.634Z,26.76
2018-07-08T11:41:47.512Z,27.11
2018-07-08T11:42:57.517Z,27.52
2018-07-08T11:44:07.140Z,27.93
2018-07-08T11:45:17.214Z,28.43
2018-07-08T11:46:27.028Z,29.02
2018-07-08T11:47:36.890Z,29.59
2018-07-08T11:48:46.708Z,29.98
2018-07-08T11:49:56.623Z,30.51
2018-07-08T11:51:06.058Z,30.89
2018-07-08T11:52:16.140Z,31.11
2018-07-08T11:53:26.296Z,31.5
2018-07-08T11:54:36.107Z,31.82
2018-07-08T11:55:45.403Z,31.98
2018-07-08T11:56:55.494Z,32.42
2018-07-08T11:58:05.580Z,32.64
2018-07-08T11:59:15.731Z,32.95
2018-07-08T12:00:25.839Z,33.31
2018-07-08T12:01:35.381Z,33.6
2018-07-08T12:02:45.196Z,34.04
2018-07-08T12:03:55.022Z,34.22
2018-07-08T12:05:05.010Z,34.55
2018-07-08T12:06:15.065Z,34.82
2018-07-08T12:07:24.940Z,35.26
2018-07-08T12:08:34.761Z,35.26
2018-07-08T12:09:44.028Z,35.53
2018-07-08T12:10:53.891Z,35.72
2018-07-08T12:12:03.431Z,35.94
2018-07-08T12:13:13.521Z,35.87
2018-07-08T12:14:23.393Z,35.93
2018-07-08T12:15:33.053Z,35.94
2018-07-08T12:16:43.193Z,36.03
2018-07-08T12:17:53.290Z,36.22
2018-07-08T12:19:03.125Z,36.33
2018-07-08T12:20:12.693Z,36.54
2018-07-08T12:21:23.307Z,36.73
2018-07-08T12:22:33.214Z,36.89
2018-07-08T12:23:43.340Z,37
2018-07-08T12:24:52.893Z,36.62
2018-07-08T12:26:02.975Z,36.62
2018-07-08T12:27:12.542Z,36.6
2018-07-08T12:28:22.673Z,36.62
2018-07-08T12:29:32.760Z,36.8
2018-07-08T12:30:42.839Z,36.99
2018-07-08T12:31:52.385Z,37.18
2018-07-08T12:33:02.478Z,37.31
2018-07-08T12:34:12.633Z,37.61
2018-07-08T12:35:22.463Z,37.8
2018-07-08T12:36:32.564Z,37.82
2018-07-08T12:37:42.443Z,38.12
2018-07-08T12:38:52.262Z,38.27
2018-07-08T12:40:01.584Z,38.56
2018-07-08T12:41:10.853Z,38.81
2018-07-08T12:42:20.944Z,39.1
2018-07-08T12:43:31.025Z,39.39
2018-07-08T12:44:41.381Z,39.57
2018-07-08T12:45:51.977Z,39.93
2018-07-08T12:47:01.522Z,40.34
2018-07-08T12:48:11.071Z,40.24
2018-07-08T12:49:21.148Z,40.36
2018-07-08T12:50:30.965Z,40.2
2018-07-08T12:51:40.833Z,40
2018-07-08T12:52:50.932Z,40.2
2018-07-08T12:54:01.025Z,40.49
2018-07-08T12:55:10.583Z,40.85
2018-07-08T12:56:20.416Z,40.96
2018-07-08T12:57:30.543Z,41.03
2018-07-08T12:58:40.820Z,40.9
2018-07-08T12:59:50.762Z,41.04
2018-07-08T13:01:00.577Z,40.69
2018-07-08T13:02:10.655Z,40.64
2018-07-08T13:03:20.536Z,40.67
2018-07-08T13:04:30.366Z,40.52
2018-07-08T13:05:40.444Z,40.61
2018-07-08T13:06:50.348Z,40.66
2018-07-08T13:08:00.191Z,40.88
2018-07-08T13:09:09.803Z,40.67
2018-07-08T13:10:19.889Z,40.61
2018-07-08T13:11:29.172Z,40.66
2018-07-08T13:12:39.379Z,40.93
2018-07-08T13:13:49.475Z,41.07
2018-07-08T13:14:59.341Z,41.05
2018-07-08T13:16:09.158Z,41.26
2018-07-08T13:17:18.989Z,40.9
2018-07-08T13:18:28.545Z,41.17
2018-07-08T13:19:38.638Z,41
2018-07-08T13:20:48.769Z,41
2018-07-08T13:21:58.621Z,41.29
2018-07-08T13:23:08.446Z,41.48
2018-07-08T13:24:18.541Z,41.44
2018-07-08T13:25:28.632Z,41.04
2018-07-08T13:26:38.775Z,41.26
2018-07-08T13:27:48.855Z,41.61
2018-07-08T13:28:58.956Z,41.81
2018-07-08T13:30:09.045Z,42.14
2018-07-08T13:31:18.867Z,42.18
2018-07-08T13:32:29.241Z,42.25
2018-07-08T13:33:39.249Z,42.14
2018-07-08T13:34:49.172Z,42.18
2018-07-08T13:35:59.000Z,42.41
2018-07-08T13:37:09.092Z,42.37
2018-07-08T13:38:19.208Z,42.89
2018-07-08T13:39:29.026Z,43.28
2018-07-08T13:40:39.126Z,43.24
2018-07-08T13:41:49.239Z,43.12
2018-07-08T13:42:59.322Z,43.62
2018-07-08T13:44:08.926Z,42.89
2018-07-08T13:45:19.033Z,42.17
2018-07-08T13:46:29.141Z,41.45
2018-07-08T13:47:39.235Z,41.33
2018-07-08T13:48:49.060Z,41.57
2018-07-08T13:49:58.944Z,40.92
2018-07-08T13:51:08.768Z,40.2
2018-07-08T13:52:18.576Z,39.78
2018-07-08T13:53:28.678Z,39.17
2018-07-08T13:54:38.240Z,39
2018-07-08T13:55:48.477Z,38.6
2018-07-08T13:56:58.027Z,38.14
2018-07-08T13:58:08.112Z,37.95
2018-07-08T13:59:17.660Z,37.41
2018-07-08T14:00:27.805Z,37.04
2018-07-08T14:01:37.683Z,36.97
2018-07-08T14:02:47.766Z,36.6
2018-07-08T14:03:57.858Z,36.43
2018-07-08T14:05:07.405Z,36.44
2018-07-08T14:06:17.218Z,36.31
2018-07-08T14:07:27.108Z,35.93
2018-07-08T14:08:37.207Z,35.56
2018-07-08T14:09:47.284Z,35.39
2018-07-08T14:10:57.092Z,35.05
2018-07-08T14:12:06.907Z,34.56
2018-07-08T14:13:16.792Z,34.38
2018-07-08T14:14:26.612Z,34.25
2018-07-08T14:15:36.135Z,34.6
2018-07-08T14:16:45.985Z,35.03
2018-07-08T14:17:56.063Z,35.18
2018-07-08T14:19:05.931Z,35.25
2018-07-08T14:20:16.539Z,35.49
2018-07-08T14:21:27.227Z,35.86
2018-07-08T14:22:37.321Z,36.24
2018-07-08T14:23:47.143Z,36.69
2018-07-08T14:24:57.282Z,37.16
2018-07-08T14:26:06.832Z,37.64
2018-07-08T14:27:16.926Z,37.91
2018-07-08T14:28:27.014Z,38.19
2018-07-08T14:29:37.224Z,38.32
2018-07-08T14:30:47.094Z,38.51
2018-07-08T14:31:56.633Z,38.35
2018-07-08T14:33:06.709Z,38.09
2018-07-08T14:34:16.817Z,37.9
2018-07-08T14:35:26.906Z,37.83
2018-07-08T14:36:36.503Z,37.64
2018-07-08T14:37:46.321Z,37.6
2018-07-08T14:38:56.186Z,38.04
2018-07-08T14:40:06.018Z,38.35
2018-07-08T14:41:16.106Z,37.98
2018-07-08T14:42:26.268Z,37.6
2018-07-08T14:43:36.348Z,37.16
2018-07-08T14:44:46.791Z,37
2018-07-08T14:45:56.513Z,36.59
2018-07-08T14:47:06.357Z,36.7
2018-07-08T14:48:16.223Z,37.06
2018-07-08T14:49:26.304Z,36.65
2018-07-08T14:50:35.310Z,36.5
2018-07-08T14:51:46.345Z,36.57
2018-07-08T14:52:56.465Z,36.84
2018-07-08T14:54:06.056Z,36.87
2018-07-08T14:55:15.667Z,37.18
2018-07-08T14:56:25.759Z,37.07
2018-07-08T14:57:35.572Z,37.4
2018-07-08T14:58:45.654Z,37.75
2018-07-08T14:59:55.253Z,37.8
2018-07-08T15:01:04.794Z,37.61
2018-07-08T15:02:14.612Z,37.41
2018-07-08T15:03:24.157Z,37.63
2018-07-08T15:04:33.970Z,38.04
2018-07-08T15:05:43.910Z,38.63
2018-07-08T15:06:53.999Z,39.01
2018-07-08T15:08:03.548Z,39.32